Terminal Aerodrome Forecast
Issued by NWS Charleston, WV

Current Version | Previous Version | Text Only | Print | Product List | Glossary Off
Versions: 1 2 3 4 5 6 7 8 9 10 11 12 13 14 15 16 17 18 19 20 21

000
FTUS41 KRLX 291501 AAA
TAFPKB
TAF AMD
KPKB 291501Z 2915/3012 27004KT P6SM SCT040
     FM300200 00000KT P6SM BKN060
     FM300500 00000KT P6SM VCTS BKN060CB
     FM301000 00000KT 3SM BR BKN040=

USA.gov is the U.S. government's official web portal to all federal, state and local government web resources and services.